Joe Foss Field Airport
KFSD : now visible

Airfield :











YOU CAN JOIN US ON...

 
LOGIN :

Register | Disclaimer

   EN    FR    IT 

 









Legend :    VFR   Marginal VFR   IFR   Intensive IFR   Very Intensive IFR
Visi :
Ceiling :
>= 8 km
>= 3000ft
5 to 8 km
1000 to 3000 ft
1500m to 5 km
500 to 1000 ft
800 to 1500m
200 to 500 ft
< 800m
< 200 ft
Symbols :   Thunderstorms  Fog  Heavy snow  Heavy precipitations  Wind > 20 kt






- Airport Elevation : 1429 ft
- IATA code : FSD


KFSD - Joe Foss Field

CURRENT METAR :
  • 281425Z 08005KT 1 1/2SM -FZDZ BR OVC003 M08/M09 A3012 RMK AO2 FZDZB24 P0000 I1000 T10781089

EXPIRED METARs :
  • 281356Z 05004KT 1 1/2SM BR BKN004 OVC006 M08/M09 A3012 RMK AO2 FZDZE16SNE07 SLP224 P0000 I1000 T10781089
  • 281334Z 03003KT 1 1/2SM BR BKN003 OVC007 M08/M09 A3012 RMK AO2 SFC VIS 1 3/4 FZDZE16SNE07 P0000 I1000 T10781089
  • 281256Z 04003KT 2SM -FZDZSN BR BKN004 OVC010 M08/M09 A3012 RMK AO2 SFC VIS 2 1/2 SNB56 SLP223 P0000 I1001 T10781094
  • 281156Z 01005KT 3SM -FZDZ BR BKN004 OVC008 M07/M09 A3012 RMK AO2 SLP223 P0000 60000 I1001 I6001 T10721089 11061 21072 55000

TAF KFSD
Valid from the 28 at 14:00 until the 29 at 12:00 UTC


281349Z 2814/2912 VRB05KT 3SM -FZDZ BR OVC005
FM281600 34003KT P6SM OVC005
FM290000 VRB03KT 2SM -SN OVC006
FM290400 15005KT P6SM OVC008



MET'MAP, your aeronautical weather chart ! - Copyright ORBIFLY December 2007 - Disclaimer

ORBIFLY MET'MAP TEAM :

Programming & Development : Alexandra Zaïnal
Concept & original design : Baudouin d'Aumeries
Assistance for programming : Marc-Olivier Méhu
Technical & hardware support : Manuel Goepfert

Contact : metmap@orbifly.com




SOURCES & CREDITS :

   NOAA       Earth
Advisory